Terminal Aerodrome Forecast
Issued by NWS Cleveland, OH

Home | Current Version | Previous Version | Text Only | Print | Product List | Glossary Off
Versions: 1 2 3 4 5 6 7 8 9 10 11 12 13 14 15 16 17 18

000
FTUS41 KCLE 151139
TAFMFD
TAF
KMFD 151139Z 1512/1612 14007KT 6SM -SN OVC035
     FM151230 14008KT 4SM -SN SCT015 OVC025
      TEMPO 1513/1515 2SM -SN
     FM151800 17011KT 1SM -SN OVC010
     FM160200 21009KT 2SM -SN OVC007
     FM160300 22009KT P6SM OVC007
     FM160700 25009KT P6SM BKN010=

USA.gov is the U.S. government's official web portal to all federal, state and local government web resources and services.